Time;durP1;ratioP1;P1;durP2;ratioP2;P2;SDS_P1;SDS_P2;PMS_P1;PMS_P2;Temp;Humidity;BMP_temperature;BMP_pressure;BME280_temperature;BME280_humidity;BME280_pressure;Samples;Min_cycle;Max_cycle;Signal;HPM_P1;HPM_P2
2024/02/28 00:01:27;;;;;;;47.35;20.98;;;;;;;;;;5080297;28;20059;-62
2024/02/28 00:03:53;;;;;;;52.55;20.52;;;;;;;;;;5076579;28;20234;-62
2024/02/28 00:06:19;;;;;;;48.20;19.92;;;;;;;;;;5074369;28;20636;-62
2024/02/28 00:08:46;;;;;;;48.63;21.05;;;;;;;;;;5082086;28;20178;-62
2024/02/28 00:11:12;;;;;;;46.88;19.65;;;;;;;;;;5076903;28;20493;-64
2024/02/28 00:13:38;;;;;;;41.97;20.00;;;;;;;;;;5078561;28;20041;-62
2024/02/28 00:16:04;;;;;;;49.00;19.50;;;;;;;;;;5074711;28;20049;-62
2024/02/28 00:18:31;;;;;;;46.08;19.60;;;;;;;;;;5082003;28;20040;-62
2024/02/28 00:20:57;;;;;;;45.30;19.55;;;;;;;;;;5075199;28;20489;-64
2024/02/28 00:23:23;;;;;;;44.95;18.92;;;;;;;;;;5077027;28;20043;-62
2024/02/28 00:25:49;;;;;;;44.28;19.40;;;;;;;;;;5075388;28;20024;-62
2024/02/28 00:28:15;;;;;;;42.40;18.33;;;;;;;;;;5084981;28;20042;-62
2024/02/28 00:30:41;;;;;;;44.72;19.10;;;;;;;;;;5071043;28;20036;-62
2024/02/28 00:33:07;;;;;;;47.60;20.67;;;;;;;;;;5071214;28;20289;-62
2024/02/28 00:35:34;;;;;;;43.70;19.98;;;;;;;;;;5074605;28;20562;-62
2024/02/28 00:38:01;;;;;;;51.05;21.48;;;;;;;;;;5075910;28;20051;-62
2024/02/28 00:40:28;;;;;;;52.67;21.80;;;;;;;;;;5086121;28;20035;-62
2024/02/28 00:42:55;;;;;;;61.05;23.70;;;;;;;;;;5077364;28;20142;-62
2024/02/28 00:45:21;;;;;;;51.13;22.00;;;;;;;;;;5076763;28;20040;-62
2024/02/28 00:47:47;;;;;;;55.83;21.80;;;;;;;;;;5077419;28;20040;-61
2024/02/28 00:50:13;;;;;;;55.53;22.42;;;;;;;;;;5073444;28;20056;-62
2024/02/28 00:52:40;;;;;;;52.00;22.35;;;;;;;;;;5079249;28;20050;-61
2024/02/28 00:55:07;;;;;;;47.83;20.45;;;;;;;;;;5075954;28;20032;-62
2024/02/28 00:57:33;;;;;;;46.25;20.33;;;;;;;;;;5073970;28;20520;-61
2024/02/28 00:59:59;;;;;;;45.78;20.48;;;;;;;;;;5077778;28;20059;-62
2024/02/28 01:02:25;;;;;;;46.85;20.08;;;;;;;;;;5078693;28;20039;-63
2024/02/28 01:04:51;;;;;;;49.60;20.20;;;;;;;;;;5076271;28;20032;-62
2024/02/28 01:07:17;;;;;;;43.70;19.70;;;;;;;;;;5072226;28;20036;-62
2024/02/28 01:09:44;;;;;;;44.10;19.35;;;;;;;;;;5079715;28;20050;-62
2024/02/28 01:12:10;;;;;;;46.53;20.00;;;;;;;;;;5067172;28;20607;-62
2024/02/28 01:14:36;;;;;;;43.70;19.83;;;;;;;;;;5079864;28;20040;-62
2024/02/28 01:17:02;;;;;;;47.55;20.98;;;;;;;;;;5084762;28;20048;-62
2024/02/28 01:19:28;;;;;;;43.72;21.27;;;;;;;;;;5083509;28;20053;-63
2024/02/28 01:21:54;;;;;;;46.33;20.33;;;;;;;;;;5081541;28;20132;-62
2024/02/28 01:24:21;;;;;;;47.90;20.92;;;;;;;;;;5075395;28;20370;-62
2024/02/28 01:26:47;;;;;;;43.65;21.05;;;;;;;;;;5078555;28;20035;-62
2024/02/28 01:29:14;;;;;;;46.05;20.45;;;;;;;;;;5080450;28;20431;-61
2024/02/28 01:31:40;;;;;;;44.35;19.70;;;;;;;;;;5076941;28;20044;-62
2024/02/28 01:34:06;;;;;;;41.38;19.58;;;;;;;;;;5075288;28;20037;-61
2024/02/28 01:36:32;;;;;;;44.08;19.58;;;;;;;;;;5081859;28;20040;-61
2024/02/28 01:38:58;;;;;;;42.90;19.88;;;;;;;;;;5081419;28;20063;-61
2024/02/28 01:41:25;;;;;;;43.70;19.25;;;;;;;;;;5083550;28;20424;-61
2024/02/28 01:43:53;;;;;;;42.30;19.08;;;;;;;;;;5083437;28;20043;-61
2024/02/28 01:46:25;;;;;;;43.50;19.50;;;;;;;;;;5079750;28;20528;-61
2024/02/28 01:48:53;;;;;;;39.83;18.42;;;;;;;;;;5078211;28;20040;-62
2024/02/28 01:51:20;;;;;;;45.40;20.13;;;;;;;;;;5074308;28;20044;-62
2024/02/28 01:53:48;;;;;;;42.58;19.08;;;;;;;;;;5082877;28;20416;-62
2024/02/28 01:56:16;;;;;;;45.15;19.15;;;;;;;;;;5083200;28;20044;-63
2024/02/28 01:58:47;;;;;;;46.00;20.77;;;;;;;;;;5075046;28;20045;-62
2024/02/28 02:01:17;;;;;;;40.95;18.30;;;;;;;;;;5083534;28;20060;-62
2024/02/28 02:03:48;;;;;;;42.17;19.38;;;;;;;;;;5084302;28;20370;-63
2024/02/28 02:06:14;;;;;;;48.53;20.60;;;;;;;;;;5082240;28;20059;-65
2024/02/28 02:08:41;;;;;;;46.25;19.17;;;;;;;;;;5081857;28;20501;-63
2024/02/28 02:11:08;;;;;;;44.80;19.23;;;;;;;;;;5077573;28;20048;-62
2024/02/28 02:13:35;;;;;;;41.78;19.30;;;;;;;;;;5078198;28;20043;-62
2024/02/28 02:16:01;;;;;;;43.72;19.75;;;;;;;;;;5084919;28;20554;-62
2024/02/28 02:18:27;;;;;;;36.47;17.33;;;;;;;;;;5084926;28;20103;-63
2024/02/28 02:21:02;;;;;;;38.10;17.63;;;;;;;;;;5078327;28;20048;-63
2024/02/28 02:23:28;;;;;;;42.60;18.00;;;;;;;;;;5076821;28;20498;-63
2024/02/28 02:25:54;;;;;;;43.60;18.65;;;;;;;;;;5076678;28;20031;-63
2024/02/28 02:28:20;;;;;;;43.55;18.75;;;;;;;;;;5088038;28;20051;-63
2024/02/28 02:30:47;;;;;;;45.85;19.23;;;;;;;;;;5079465;28;20462;-63
2024/02/28 02:33:13;;;;;;;42.20;18.73;;;;;;;;;;5081623;28;20270;-63
2024/02/28 02:35:39;;;;;;;40.40;17.70;;;;;;;;;;5073597;28;20453;-62
2024/02/28 02:38:05;;;;;;;40.13;18.55;;;;;;;;;;5080283;28;20473;-62
2024/02/28 02:40:31;;;;;;;41.42;18.35;;;;;;;;;;5075868;28;20045;-62
2024/02/28 02:42:57;;;;;;;42.42;18.98;;;;;;;;;;5074301;28;20063;-63
2024/02/28 02:45:23;;;;;;;39.53;18.25;;;;;;;;;;5079635;28;20036;-62
2024/02/28 02:47:50;;;;;;;42.40;18.88;;;;;;;;;;5075090;28;20047;-63
2024/02/28 02:50:16;;;;;;;45.67;18.20;;;;;;;;;;5076291;28;20056;-63
2024/02/28 02:52:42;;;;;;;41.70;19.85;;;;;;;;;;5080487;28;20411;-62
2024/02/28 02:55:08;;;;;;;46.15;20.17;;;;;;;;;;5076735;28;20040;-63
2024/02/28 02:57:35;;;;;;;37.92;18.15;;;;;;;;;;5076872;28;20409;-63
2024/02/28 03:00:02;;;;;;;44.03;18.65;;;;;;;;;;5080616;28;20040;-63
2024/02/28 03:02:28;;;;;;;42.25;18.60;;;;;;;;;;5082969;28;20036;-63
2024/02/28 03:04:54;;;;;;;42.90;19.67;;;;;;;;;;5088168;28;20052;-63
2024/02/28 03:07:20;;;;;;;36.55;16.88;;;;;;;;;;5080462;28;20539;-62
2024/02/28 03:09:46;;;;;;;39.42;17.58;;;;;;;;;;5085103;28;20036;-63
2024/02/28 03:12:12;;;;;;;36.92;18.13;;;;;;;;;;5081627;28;20040;-62
2024/02/28 03:14:38;;;;;;;44.22;18.77;;;;;;;;;;5082799;28;20047;-62
2024/02/28 03:17:04;;;;;;;44.25;18.90;;;;;;;;;;5081532;28;20060;-62
2024/02/28 03:19:30;;;;;;;41.30;18.65;;;;;;;;;;5075732;28;20067;-62
2024/02/28 03:21:56;;;;;;;43.78;18.02;;;;;;;;;;5078165;28;20036;-63
2024/02/28 03:24:25;;;;;;;44.35;19.33;;;;;;;;;;5079582;28;20048;-63
2024/02/28 03:26:51;;;;;;;48.97;20.20;;;;;;;;;;5078624;28;20032;-63
2024/02/28 03:29:17;;;;;;;42.17;18.92;;;;;;;;;;5077812;28;20048;-62
2024/02/28 03:31:43;;;;;;;41.47;18.27;;;;;;;;;;5079913;28;20043;-64
2024/02/28 03:34:09;;;;;;;43.08;19.73;;;;;;;;;;5073170;28;20047;-63
2024/02/28 03:36:36;;;;;;;39.60;18.48;;;;;;;;;;5077158;28;20761;-63
2024/02/28 03:39:02;;;;;;;41.67;18.55;;;;;;;;;;5077544;28;20041;-62
2024/02/28 03:41:28;;;;;;;44.80;20.40;;;;;;;;;;5079119;28;20477;-62
2024/02/28 03:43:54;;;;;;;43.72;18.42;;;;;;;;;;5085231;28;20031;-62
2024/02/28 03:46:21;;;;;;;44.45;19.95;;;;;;;;;;5074362;28;20051;-63
2024/02/28 03:48:47;;;;;;;41.33;19.90;;;;;;;;;;5075386;28;20045;-63
2024/02/28 03:51:13;;;;;;;44.28;19.08;;;;;;;;;;5070963;28;20044;-64
2024/02/28 03:53:41;;;;;;;45.50;19.38;;;;;;;;;;5074310;28;20538;-62
2024/02/28 03:56:07;;;;;;;42.10;19.65;;;;;;;;;;5078291;28;20032;-63
2024/02/28 03:58:33;;;;;;;45.42;18.77;;;;;;;;;;5077938;28;20051;-63
2024/02/28 04:00:59;;;;;;;38.05;18.23;;;;;;;;;;5081904;28;20024;-62
2024/02/28 04:03:25;;;;;;;43.45;20.05;;;;;;;;;;5083343;28;20058;-62
2024/02/28 04:05:51;;;;;;;38.58;18.42;;;;;;;;;;5082567;28;20028;-62
2024/02/28 04:08:17;;;;;;;45.55;19.38;;;;;;;;;;5081124;28;20051;-62
2024/02/28 04:10:43;;;;;;;44.17;19.10;;;;;;;;;;5087091;28;20572;-63
2024/02/28 04:13:09;;;;;;;43.83;20.55;;;;;;;;;;5073844;28;20040;-62
2024/02/28 04:15:37;;;;;;;41.88;18.48;;;;;;;;;;5077598;28;20059;-63
2024/02/28 04:18:03;;;;;;;43.45;20.38;;;;;;;;;;5086682;28;20048;-62
2024/02/28 04:20:29;;;;;;;34.60;16.38;;;;;;;;;;5078079;28;20048;-62
2024/02/28 04:22:55;;;;;;;41.55;18.65;;;;;;;;;;5076776;28;20523;-62
2024/02/28 04:25:21;;;;;;;39.47;18.73;;;;;;;;;;5075153;28;20056;-62
2024/02/28 04:27:48;;;;;;;38.85;18.13;;;;;;;;;;5077550;28;20029;-62
2024/02/28 04:30:17;;;;;;;38.25;18.08;;;;;;;;;;5075363;28;20456;-64
2024/02/28 04:32:43;;;;;;;39.88;18.10;;;;;;;;;;5076527;28;20059;-62
2024/02/28 04:35:10;;;;;;;39.15;18.77;;;;;;;;;;5076754;28;20052;-62
2024/02/28 04:37:36;;;;;;;34.85;16.83;;;;;;;;;;5081392;28;20055;-63
2024/02/28 04:40:03;;;;;;;41.88;19.02;;;;;;;;;;5076063;28;20032;-62
2024/02/28 04:42:29;;;;;;;40.67;19.13;;;;;;;;;;5075461;28;20059;-62
2024/02/28 04:44:55;;;;;;;38.63;18.85;;;;;;;;;;5075925;28;20059;-62
2024/02/28 04:47:22;;;;;;;37.50;17.45;;;;;;;;;;5074543;28;20040;-62
2024/02/28 04:49:48;;;;;;;39.40;18.75;;;;;;;;;;5084168;28;20047;-62
2024/02/28 04:52:14;;;;;;;42.22;19.30;;;;;;;;;;5081439;28;20055;-62
2024/02/28 04:54:40;;;;;;;43.00;20.20;;;;;;;;;;5079333;28;20051;-62
2024/02/28 04:57:07;;;;;;;40.90;19.02;;;;;;;;;;5076264;28;20051;-62
2024/02/28 04:59:33;;;;;;;38.70;17.38;;;;;;;;;;5081344;28;20485;-61
2024/02/28 05:01:59;;;;;;;39.13;18.30;;;;;;;;;;5079096;28;20040;-62
2024/02/28 05:04:25;;;;;;;45.95;19.55;;;;;;;;;;5084175;28;20527;-62
2024/02/28 05:06:51;;;;;;;38.67;18.27;;;;;;;;;;5083933;28;20032;-63
2024/02/28 05:09:17;;;;;;;37.42;18.70;;;;;;;;;;5072970;28;20060;-62
2024/02/28 05:11:44;;;;;;;37.10;17.52;;;;;;;;;;5076610;28;20024;-62
2024/02/28 05:14:10;;;;;;;41.80;18.77;;;;;;;;;;5078271;28;20049;-62
2024/02/28 05:16:36;;;;;;;42.55;18.92;;;;;;;;;;5083438;28;20044;-63
2024/02/28 05:19:04;;;;;;;39.50;17.95;;;;;;;;;;5073868;28;20432;-62
2024/02/28 05:21:30;;;;;;;40.45;18.98;;;;;;;;;;5079549;28;20417;-62
2024/02/28 05:23:56;;;;;;;41.17;18.67;;;;;;;;;;5070623;28;20059;-61
2024/02/28 05:26:22;;;;;;;40.15;17.75;;;;;;;;;;5073500;28;20431;-62
2024/02/28 05:28:48;;;;;;;41.85;18.63;;;;;;;;;;5070977;28;20036;-62
2024/02/28 05:31:21;;;;;;;40.17;18.38;;;;;;;;;;5081490;28;20040;-61
2024/02/28 05:33:47;;;;;;;42.08;18.85;;;;;;;;;;5085742;28;20044;-62
2024/02/28 05:36:13;;;;;;;38.88;18.08;;;;;;;;;;5080698;28;20413;-62
2024/02/28 05:38:40;;;;;;;39.28;18.63;;;;;;;;;;5084123;28;20051;-62
2024/02/28 05:41:06;;;;;;;38.42;18.17;;;;;;;;;;5080359;28;20041;-62
2024/02/28 05:43:32;;;;;;;46.58;18.88;;;;;;;;;;5072240;28;20032;-62
2024/02/28 05:45:58;;;;;;;41.20;18.25;;;;;;;;;;5074063;28;20516;-62
2024/02/28 05:48:24;;;;;;;41.70;18.88;;;;;;;;;;5076664;28;20044;-62
2024/02/28 05:50:50;;;;;;;42.80;18.25;;;;;;;;;;5074297;28;20044;-62
2024/02/28 05:53:16;;;;;;;38.45;17.42;;;;;;;;;;5078492;28;20053;-61
2024/02/28 05:55:42;;;;;;;38.78;18.73;;;;;;;;;;5076911;28;20055;-62
2024/02/28 05:58:08;;;;;;;41.00;18.92;;;;;;;;;;5075638;28;20033;-62
2024/02/28 06:00:34;;;;;;;37.63;17.73;;;;;;;;;;5080859;28;20051;-62
2024/02/28 06:03:00;;;;;;;40.75;18.13;;;;;;;;;;5082410;28;20040;-61
2024/02/28 06:05:27;;;;;;;39.75;18.02;;;;;;;;;;5086958;28;20052;-62
2024/02/28 06:07:53;;;;;;;42.83;18.88;;;;;;;;;;5077594;28;20366;-61
2024/02/28 06:10:20;;;;;;;45.10;19.50;;;;;;;;;;5080361;28;20048;-59
2024/02/28 06:12:47;;;;;;;43.67;18.60;;;;;;;;;;5078304;28;20040;-61
2024/02/28 06:15:13;;;;;;;38.10;17.60;;;;;;;;;;5084517;28;20044;-60
2024/02/28 06:17:39;;;;;;;41.38;19.10;;;;;;;;;;5078494;28;20032;-60
2024/02/28 06:20:06;;;;;;;42.90;19.50;;;;;;;;;;5079540;28;20028;-60
2024/02/28 06:22:32;;;;;;;49.15;21.42;;;;;;;;;;5078578;28;20040;-59
2024/02/28 06:24:58;;;;;;;43.00;19.00;;;;;;;;;;5074116;28;20032;-60
2024/02/28 06:27:26;;;;;;;45.40;20.33;;;;;;;;;;5075417;28;20040;-60
2024/02/28 06:29:52;;;;;;;40.65;17.95;;;;;;;;;;5078000;28;20512;-59
2024/02/28 06:32:18;;;;;;;42.63;18.13;;;;;;;;;;5088269;28;20059;-60
2024/02/28 06:34:45;;;;;;;41.08;18.08;;;;;;;;;;5079165;28;20028;-60
2024/02/28 06:37:11;;;;;;;43.85;20.02;;;;;;;;;;5082006;28;20037;-61
2024/02/28 06:39:37;;;;;;;43.50;19.15;;;;;;;;;;5084588;28;20142;-60
2024/02/28 06:42:03;;;;;;;38.40;17.70;;;;;;;;;;5081434;28;20055;-59
2024/02/28 06:44:29;;;;;;;44.90;19.42;;;;;;;;;;5079508;28;20047;-59
2024/02/28 06:46:55;;;;;;;46.92;19.38;;;;;;;;;;5082384;28;20394;-59
2024/02/28 06:49:22;;;;;;;50.90;21.13;;;;;;;;;;5077601;28;20037;-59
2024/02/28 06:51:48;;;;;;;45.22;20.23;;;;;;;;;;5078874;28;20040;-60
2024/02/28 06:54:15;;;;;;;40.58;18.27;;;;;;;;;;5076572;28;20355;-60
2024/02/28 06:56:41;;;;;;;46.65;19.38;;;;;;;;;;5084696;28;20035;-60
2024/02/28 06:59:07;;;;;;;39.65;18.63;;;;;;;;;;5078623;28;20048;-59
2024/02/28 07:01:33;;;;;;;41.15;18.40;;;;;;;;;;5079292;28;20056;-60
2024/02/28 07:03:59;;;;;;;40.72;18.23;;;;;;;;;;5081796;28;20071;-60
2024/02/28 07:06:25;;;;;;;38.88;18.33;;;;;;;;;;5075338;28;20045;-60
2024/02/28 07:08:51;;;;;;;46.78;19.60;;;;;;;;;;5075695;28;20095;-60
2024/02/28 07:11:17;;;;;;;40.88;19.70;;;;;;;;;;5075525;28;20598;-59
2024/02/28 07:13:43;;;;;;;41.88;19.35;;;;;;;;;;5078220;28;20045;-59
2024/02/28 07:16:09;;;;;;;40.40;17.73;;;;;;;;;;5076828;28;20052;-60
2024/02/28 07:18:35;;;;;;;42.78;19.20;;;;;;;;;;5079094;28;20032;-58
2024/02/28 07:21:02;;;;;;;40.80;18.33;;;;;;;;;;5079936;28;20055;-59
2024/02/28 07:23:28;;;;;;;55.38;22.30;;;;;;;;;;5075010;28;20546;-60
2024/02/28 07:25:54;;;;;;;62.85;24.55;;;;;;;;;;5078927;28;20386;-59
2024/02/28 07:28:20;;;;;;;57.20;22.30;;;;;;;;;;5077705;28;20028;-60
2024/02/28 07:30:47;;;;;;;47.25;19.30;;;;;;;;;;5073659;28;20036;-59
2024/02/28 07:33:13;;;;;;;63.22;24.27;;;;;;;;;;5088853;28;20063;-60
2024/02/28 07:35:51;;;;;;;53.15;21.48;;;;;;;;;;5086514;28;20051;-60
2024/02/28 07:38:20;;;;;;;54.35;21.88;;;;;;;;;;5083289;28;20421;-59
2024/02/28 07:40:47;;;;;;;49.88;20.65;;;;;;;;;;5086198;28;20040;-60
2024/02/28 07:43:14;;;;;;;48.58;20.58;;;;;;;;;;5075770;28;20047;-59
2024/02/28 07:45:40;;;;;;;46.88;19.98;;;;;;;;;;5078669;28;20643;-60
2024/02/28 07:48:06;;;;;;;45.90;20.80;;;;;;;;;;5078856;28;20028;-60
2024/02/28 07:50:32;;;;;;;46.45;20.27;;;;;;;;;;5075865;28;20067;-60
2024/02/28 07:52:59;;;;;;;42.83;19.20;;;;;;;;;;5078046;28;20050;-59
2024/02/28 07:55:25;;;;;;;46.47;19.80;;;;;;;;;;5080880;28;20040;-61
2024/02/28 07:57:52;;;;;;;48.25;21.08;;;;;;;;;;5079812;28;20062;-59
2024/02/28 08:00:19;;;;;;;42.58;18.63;;;;;;;;;;5078815;28;20055;-59
2024/02/28 08:02:46;;;;;;;45.80;18.13;;;;;;;;;;5081850;28;20035;-59
2024/02/28 08:05:13;;;;;;;44.17;18.83;;;;;;;;;;5078741;28;20036;-61
2024/02/28 08:07:39;;;;;;;41.58;18.20;;;;;;;;;;5075760;28;20040;-59
2024/02/28 08:10:06;;;;;;;39.03;18.33;;;;;;;;;;5078089;28;20370;-60
2024/02/28 08:12:32;;;;;;;46.30;17.98;;;;;;;;;;5072794;28;20429;-59
2024/02/28 08:14:58;;;;;;;41.30;18.60;;;;;;;;;;5084088;28;20052;-60
2024/02/28 08:17:24;;;;;;;41.72;18.55;;;;;;;;;;5078584;28;20060;-59
2024/02/28 08:19:50;;;;;;;37.67;17.55;;;;;;;;;;5074521;28;20040;-60
2024/02/28 08:22:17;;;;;;;45.15;20.25;;;;;;;;;;5079862;28;20132;-60
2024/02/28 08:24:43;;;;;;;38.15;17.25;;;;;;;;;;5079186;28;20044;-59
2024/02/28 08:27:09;;;;;;;40.30;18.33;;;;;;;;;;5078348;28;20055;-61
2024/02/28 08:29:35;;;;;;;44.03;19.05;;;;;;;;;;5079955;28;20042;-60
2024/02/28 08:32:02;;;;;;;45.30;18.38;;;;;;;;;;5086516;28;20397;-60
2024/02/28 08:34:28;;;;;;;39.88;17.92;;;;;;;;;;5080672;28;20040;-60
2024/02/28 08:36:55;;;;;;;45.63;19.80;;;;;;;;;;5078845;28;20044;-60
2024/02/28 08:39:21;;;;;;;42.17;19.50;;;;;;;;;;5075060;28;20044;-60
2024/02/28 08:41:47;;;;;;;44.95;19.58;;;;;;;;;;5074338;28;20040;-61
2024/02/28 08:44:13;;;;;;;42.97;18.13;;;;;;;;;;5082316;28;20059;-60
2024/02/28 08:46:39;;;;;;;43.08;19.30;;;;;;;;;;5083160;28;20043;-60
2024/02/28 08:49:05;;;;;;;40.08;18.15;;;;;;;;;;5077839;28;20027;-61
2024/02/28 08:51:31;;;;;;;43.10;18.65;;;;;;;;;;5074531;28;20053;-62
2024/02/28 08:53:59;;;;;;;45.70;20.75;;;;;;;;;;5079090;28;20524;-60
2024/02/28 08:56:25;;;;;;;44.40;19.60;;;;;;;;;;5077810;28;20055;-61
2024/02/28 08:58:51;;;;;;;46.60;19.83;;;;;;;;;;5079399;28;20048;-60
2024/02/28 09:01:18;;;;;;;40.33;17.80;;;;;;;;;;5101378;28;20036;-61
2024/02/28 09:03:44;;;;;;;42.42;17.63;;;;;;;;;;5084675;28;20032;-60
2024/02/28 09:06:10;;;;;;;42.13;18.33;;;;;;;;;;5077521;28;20051;-61
2024/02/28 09:08:36;;;;;;;42.17;18.30;;;;;;;;;;5079431;28;20435;-60
2024/02/28 09:11:02;;;;;;;47.33;19.58;;;;;;;;;;5080089;28;20044;-60
2024/02/28 09:13:30;;;;;;;47.40;19.85;;;;;;;;;;5075110;28;20044;-60
2024/02/28 09:15:56;;;;;;;45.05;19.17;;;;;;;;;;5070921;28;20040;-61
2024/02/28 09:18:23;;;;;;;45.60;18.77;;;;;;;;;;5077769;28;20064;-58
2024/02/28 09:20:49;;;;;;;42.40;19.50;;;;;;;;;;5082143;28;20054;-60
2024/02/28 09:23:15;;;;;;;40.40;17.75;;;;;;;;;;5085392;28;20067;-60
2024/02/28 09:25:41;;;;;;;43.38;16.98;;;;;;;;;;5078635;28;20047;-59
2024/02/28 09:28:08;;;;;;;39.45;17.58;;;;;;;;;;5072030;28;21050;-60
2024/02/28 09:30:34;;;;;;;42.17;17.27;;;;;;;;;;5074625;28;20055;-60
2024/02/28 09:33:00;;;;;;;39.50;18.10;;;;;;;;;;5085611;28;20043;-60
2024/02/28 09:35:27;;;;;;;40.97;17.02;;;;;;;;;;5080213;28;20051;-60
2024/02/28 09:37:53;;;;;;;40.65;16.42;;;;;;;;;;5078793;28;20409;-61
2024/02/28 09:40:19;;;;;;;36.92;16.65;;;;;;;;;;5076051;28;20053;-60
2024/02/28 09:42:53;;;;;;;36.45;16.60;;;;;;;;;;5078975;28;20044;-60
2024/02/28 09:45:21;;;;;;;41.63;17.85;;;;;;;;;;5079685;28;20029;-60
2024/02/28 09:47:47;;;;;;;41.58;17.92;;;;;;;;;;5083477;28;20444;-58
2024/02/28 09:50:19;;;;;;;39.83;17.55;;;;;;;;;;5078289;28;20505;-61
2024/02/28 09:52:45;;;;;;;38.03;17.05;;;;;;;;;;5084908;28;20043;-61
2024/02/28 09:55:12;;;;;;;39.10;17.63;;;;;;;;;;5078688;28;20146;-59
2024/02/28 09:57:39;;;;;;;41.25;17.60;;;;;;;;;;5083564;28;20051;-59
2024/02/28 10:00:07;;;;;;;42.13;18.65;;;;;;;;;;5079470;28;20040;-59
2024/02/28 10:02:33;;;;;;;41.55;19.35;;;;;;;;;;5082226;28;20040;-59
2024/02/28 10:05:01;;;;;;;43.28;19.70;;;;;;;;;;5088560;28;20051;-59
2024/02/28 10:07:27;;;;;;;43.70;20.38;;;;;;;;;;5075078;28;20538;-59
2024/02/28 10:09:53;;;;;;;47.60;18.73;;;;;;;;;;5075612;28;20052;-59
2024/02/28 10:12:20;;;;;;;38.60;17.58;;;;;;;;;;5073227;28;20413;-59
2024/02/28 10:14:50;;;;;;;38.28;17.35;;;;;;;;;;5081521;28;20028;-59
2024/02/28 10:17:16;;;;;;;37.47;16.73;;;;;;;;;;5076998;28;20047;-59
2024/02/28 10:19:42;;;;;;;42.00;18.40;;;;;;;;;;5075229;28;20070;-58
2024/02/28 10:22:08;;;;;;;39.67;17.20;;;;;;;;;;5074609;28;20045;-60
2024/02/28 10:24:34;;;;;;;41.38;18.45;;;;;;;;;;5084014;28;20060;-58
2024/02/28 10:27:01;;;;;;;38.50;18.30;;;;;;;;;;5080759;28;20409;-59
2024/02/28 10:29:32;;;;;;;38.75;18.45;;;;;;;;;;5083637;28;20449;-59
2024/02/28 10:31:59;;;;;;;41.05;18.65;;;;;;;;;;5076009;28;20440;-59
2024/02/28 10:34:26;;;;;;;39.40;19.30;;;;;;;;;;5090608;28;20039;-59
2024/02/28 10:36:52;;;;;;;39.15;17.27;;;;;;;;;;5089618;28;20520;-59
2024/02/28 10:39:19;;;;;;;44.72;19.10;;;;;;;;;;5076477;28;20059;-59
2024/02/28 10:41:48;;;;;;;45.25;19.95;;;;;;;;;;5077313;28;20044;-59
2024/02/28 10:44:16;;;;;;;49.53;22.58;;;;;;;;;;5079020;28;20044;-59
2024/02/28 10:46:47;;;;;;;43.30;20.65;;;;;;;;;;5077951;28;20032;-60
2024/02/28 10:49:13;;;;;;;40.65;18.60;;;;;;;;;;5084183;28;20032;-60
2024/02/28 10:51:40;;;;;;;39.83;16.92;;;;;;;;;;5083769;28;20047;-59
2024/02/28 10:54:11;;;;;;;41.05;17.33;;;;;;;;;;5080546;28;20044;-60
2024/02/28 10:56:43;;;;;;;37.95;16.30;;;;;;;;;;5075906;28;20535;-62
2024/02/28 10:59:11;;;;;;;38.45;17.23;;;;;;;;;;5083144;28;20037;-59
2024/02/28 11:01:42;;;;;;;41.15;17.70;;;;;;;;;;5078289;28;20037;-60
2024/02/28 11:04:08;;;;;;;46.30;16.80;;;;;;;;;;5074817;28;20060;-59
2024/02/28 11:06:34;;;;;;;41.42;16.80;;;;;;;;;;5073740;28;20037;-59
2024/02/28 11:09:03;;;;;;;41.28;17.75;;;;;;;;;;5083288;28;20028;-59
2024/02/28 11:11:32;;;;;;;40.75;17.23;;;;;;;;;;5072898;28;20067;-59
2024/02/28 11:14:02;;;;;;;40.40;16.98;;;;;;;;;;5078022;28;20762;-60
2024/02/28 11:16:32;;;;;;;36.33;16.60;;;;;;;;;;5080778;28;20059;-60
2024/02/28 11:19:01;;;;;;;40.05;16.65;;;;;;;;;;5074855;28;20029;-59
2024/02/28 11:21:27;;;;;;;41.97;17.38;;;;;;;;;;5081826;28;20054;-60
2024/02/28 11:23:58;;;;;;;42.10;16.92;;;;;;;;;;5082881;28;20036;-59
2024/02/28 11:26:25;;;;;;;38.13;16.60;;;;;;;;;;5080286;28;20033;-59
2024/02/28 11:28:51;;;;;;;44.67;17.60;;;;;;;;;;5077873;28;20040;-60
2024/02/28 11:31:18;;;;;;;41.03;17.83;;;;;;;;;;5081926;28;20040;-59
2024/02/28 11:33:44;;;;;;;42.38;17.58;;;;;;;;;;5082844;28;20032;-59
2024/02/28 11:36:12;;;;;;;34.65;16.52;;;;;;;;;;5079796;28;20047;-59
2024/02/28 11:38:40;;;;;;;33.53;15.07;;;;;;;;;;5079319;28;20040;-59
2024/02/28 11:41:07;;;;;;;41.22;17.55;;;;;;;;;;5077622;28;20294;-59
2024/02/28 11:43:36;;;;;;;37.92;17.27;;;;;;;;;;5081056;28;20054;-59
2024/02/28 11:46:10;;;;;;;44.40;16.80;;;;;;;;;;5078371;28;20032;-60
2024/02/28 11:48:36;;;;;;;37.38;16.90;;;;;;;;;;5081848;28;20043;-59
2024/02/28 11:51:02;;;;;;;39.22;17.08;;;;;;;;;;5081675;28;20032;-59
2024/02/28 11:53:28;;;;;;;41.28;17.60;;;;;;;;;;5082594;28;20055;-59
2024/02/28 11:55:55;;;;;;;38.28;16.67;;;;;;;;;;5079739;28;20039;-59
2024/02/28 11:58:22;;;;;;;40.20;16.88;;;;;;;;;;5080832;28;20048;-59
2024/02/28 12:00:51;;;;;;;46.50;17.88;;;;;;;;;;5076846;28;20447;-60
2024/02/28 12:03:24;;;;;;;43.88;16.42;;;;;;;;;;5078348;28;20488;-60
2024/02/28 12:05:51;;;;;;;40.58;17.38;;;;;;;;;;5080489;28;20043;-60
2024/02/28 12:08:19;;;;;;;39.17;17.48;;;;;;;;;;5079025;28;20075;-60
2024/02/28 12:10:48;;;;;;;38.08;16.85;;;;;;;;;;5080866;28;20047;-60
2024/02/28 12:13:18;;;;;;;36.63;16.48;;;;;;;;;;5092185;28;20052;-60
2024/02/28 12:15:46;;;;;;;39.70;17.23;;;;;;;;;;5077512;28;20043;-59
2024/02/28 12:18:14;;;;;;;35.60;15.90;;;;;;;;;;5081290;28;20059;-60
2024/02/28 12:20:40;;;;;;;36.35;16.10;;;;;;;;;;5078135;28;20416;-60
2024/02/28 12:23:08;;;;;;;38.97;17.27;;;;;;;;;;5073990;28;20048;-63
2024/02/28 12:25:37;;;;;;;39.58;17.02;;;;;;;;;;5084603;28;20428;-59
2024/02/28 12:28:06;;;;;;;38.50;17.70;;;;;;;;;;5080041;28;20047;-60
2024/02/28 12:30:40;;;;;;;36.47;16.60;;;;;;;;;;5084314;28;20036;-60
2024/02/28 12:33:06;;;;;;;36.78;17.10;;;;;;;;;;5078103;28;20032;-61
2024/02/28 12:35:32;;;;;;;40.10;17.73;;;;;;;;;;5078009;28;20036;-59
2024/02/28 12:37:58;;;;;;;38.58;16.90;;;;;;;;;;5079775;28;20035;-60
2024/02/28 12:40:25;;;;;;;34.38;15.32;;;;;;;;;;5076933;28;20059;-59
2024/02/28 12:42:51;;;;;;;37.20;17.67;;;;;;;;;;5077690;28;20052;-60
2024/02/28 12:45:17;;;;;;;39.00;17.20;;;;;;;;;;5080104;28;20045;-60
2024/02/28 12:47:43;;;;;;;39.67;15.57;;;;;;;;;;5077480;28;20044;-60
2024/02/28 12:50:10;;;;;;;37.65;16.75;;;;;;;;;;5077694;28;20493;-60
2024/02/28 12:52:37;;;;;;;37.25;16.00;;;;;;;;;;5079481;28;20434;-59
2024/02/28 12:55:03;;;;;;;34.72;15.43;;;;;;;;;;5078059;28;20028;-59
2024/02/28 12:57:29;;;;;;;32.47;14.93;;;;;;;;;;5077272;28;20432;-60
2024/02/28 12:59:56;;;;;;;34.83;16.23;;;;;;;;;;5075150;28;20039;-60
2024/02/28 13:02:22;;;;;;;35.88;15.82;;;;;;;;;;5084431;28;20046;-59
2024/02/28 13:04:51;;;;;;;33.30;15.15;;;;;;;;;;5078241;28;20058;-59
2024/02/28 13:07:19;;;;;;;35.70;15.85;;;;;;;;;;5074582;28;20044;-60
2024/02/28 13:09:45;;;;;;;36.08;16.17;;;;;;;;;;5082194;28;20040;-60
2024/02/28 13:12:11;;;;;;;37.75;16.92;;;;;;;;;;5080604;28;20051;-61
2024/02/28 13:14:37;;;;;;;60.90;27.50;;;;;;;;;;5087708;28;20035;-59
2024/02/28 13:17:05;;;;;;;109.70;40.33;;;;;;;;;;5087182;28;20040;-59
2024/02/28 13:19:31;;;;;;;109.45;43.25;;;;;;;;;;5076299;28;20071;-59
2024/02/28 13:21:57;;;;;;;83.97;35.63;;;;;;;;;;5088832;28;20048;-60
2024/02/28 13:24:23;;;;;;;68.88;29.17;;;;;;;;;;5084306;28;20052;-59
2024/02/28 13:26:50;;;;;;;63.80;25.67;;;;;;;;;;5084623;28;20044;-59
2024/02/28 13:29:16;;;;;;;49.30;22.40;;;;;;;;;;5083798;28;20028;-60
2024/02/28 13:31:42;;;;;;;46.50;21.40;;;;;;;;;;5071250;28;20044;-60
2024/02/28 13:34:08;;;;;;;54.47;25.23;;;;;;;;;;5077132;28;20409;-60
2024/02/28 13:36:36;;;;;;;38.72;18.92;;;;;;;;;;5090050;28;20075;-60
2024/02/28 13:39:02;;;;;;;40.78;17.67;;;;;;;;;;5087414;28;20040;-59
2024/02/28 13:41:30;;;;;;;33.95;15.90;;;;;;;;;;5079785;28;20036;-61
2024/02/28 13:43:58;;;;;;;34.78;16.65;;;;;;;;;;5083269;28;20055;-59
2024/02/28 13:46:24;;;;;;;60.05;24.17;;;;;;;;;;5085140;28;20044;-60
2024/02/28 13:48:50;;;;;;;52.08;22.85;;;;;;;;;;5087307;28;20051;-59
2024/02/28 13:51:17;;;;;;;55.78;23.77;;;;;;;;;;5091779;28;20036;-60
2024/02/28 13:53:44;;;;;;;42.55;19.73;;;;;;;;;;5087989;28;20036;-59
2024/02/28 13:56:10;;;;;;;34.03;15.52;;;;;;;;;;5080660;28;20028;-61
2024/02/28 13:58:36;;;;;;;31.30;14.43;;;;;;;;;;5076761;28;20073;-59
2024/02/28 14:01:02;;;;;;;39.03;17.40;;;;;;;;;;5089084;28;20404;-60
2024/02/28 14:03:28;;;;;;;33.72;17.25;;;;;;;;;;5073534;28;20040;-59
2024/02/28 14:05:55;;;;;;;35.58;16.02;;;;;;;;;;5078886;28;20400;-59
2024/02/28 14:08:21;;;;;;;32.13;15.35;;;;;;;;;;5082757;28;20037;-58
2024/02/28 14:10:47;;;;;;;36.95;15.80;;;;;;;;;;5088983;28;20032;-59
2024/02/28 14:13:15;;;;;;;35.60;16.35;;;;;;;;;;5085049;28;20373;-61